DENVER INTL

KDEN (DEN)
Denver, Colorado
Towered

Vatsim Metar:
KDEN 311553Z 22006KT 10SM FEW090 FEW140 SCT200 BKN250 23/13 A3013 RMK AO2 SLP124 T02280128

No ATC Online

Traffic

Inbound:
Ident
Type
Name
ETA
Phase
UAL258
A319/L
Logan James KPAE
Taxiing In
CYB1682
MU2/G
Ulrich Kriens EDDG
16:54 Z
Descent
UAL1320
A320/L
Mike Teague KPDX
17:14 Z
Cruse
SWA2117
B737/L
Michael Marx KDAL
17:39 Z
Cruse
FFT1227
A321/L
Baron Hanns KDEN
19:18 Z
Climb

Outbound:
Ident
Type
Name
Destination
Phase
UAL263
B752/Z
David Hadawi KSUA
KORD
Boarding

SIDs

STARS

Alternate Minimums

Hot Spots